Time;durP1;ratioP1;P1;durP2;ratioP2;P2;SDS_P1;SDS_P2;PMS_P1;PMS_P2;Temp;Humidity;BMP_temperature;BMP_pressure;BME280_temperature;BME280_humidity;BME280_pressure;Samples;Min_cycle;Max_cycle;Signal;HPM_P1;HPM_P2
2021/05/21 00:00:47;;;;;;;2.70;1.70;;;;;;;13.75;59.56;100108.31;5026139;28;20159;-66
2021/05/21 00:03:13;;;;;;;1.85;1.48;;;;;;;13.75;59.25;100100.34;5008646;28;20089;-66
2021/05/21 00:05:40;;;;;;;2.67;1.75;;;;;;;13.74;59.25;100088.84;5024139;28;20070;-65
2021/05/21 00:08:10;;;;;;;2.55;1.70;;;;;;;13.70;59.30;100092.66;5023821;28;20067;-66
2021/05/21 00:10:38;;;;;;;1.70;1.60;;;;;;;13.66;59.25;100081.38;5024259;28;20159;-66
2021/05/21 00:13:04;;;;;;;4.38;1.60;;;;;;;13.67;59.14;100085.75;5024101;28;20059;-66
2021/05/21 00:15:31;;;;;;;2.83;1.52;;;;;;;13.67;59.25;100077.75;5023108;28;20052;-66
2021/05/21 00:17:57;;;;;;;1.70;1.58;;;;;;;13.65;59.02;100069.00;5027228;28;20075;-67
2021/05/21 00:20:24;;;;;;;2.50;1.70;;;;;;;13.63;59.04;100068.25;5005417;28;20064;-68
2021/05/21 00:22:50;;;;;;;1.50;1.40;;;;;;;13.65;59.17;100073.47;5014502;28;20045;-67
2021/05/21 00:25:17;;;;;;;1.60;1.50;;;;;;;13.61;59.18;100067.50;5022225;28;20056;-66
2021/05/21 00:27:44;;;;;;;2.47;1.48;;;;;;;13.58;59.71;100065.03;5010139;28;20058;-66
2021/05/21 00:30:11;;;;;;;2.03;1.58;;;;;;;13.58;58.95;100070.34;5019457;28;20045;-66
2021/05/21 00:32:38;;;;;;;2.38;1.60;;;;;;;13.56;59.38;100074.91;5025872;28;20148;-68
2021/05/21 00:35:05;;;;;;;1.58;1.42;;;;;;;13.55;59.72;100067.88;5008322;28;20049;-68
2021/05/21 00:37:31;;;;;;;2.63;1.80;;;;;;;13.56;59.19;100058.94;5016557;28;20046;-67
2021/05/21 00:39:58;;;;;;;3.28;1.50;;;;;;;13.53;59.43;100043.22;5030687;28;20449;-66
2021/05/21 00:42:24;;;;;;;5.28;1.50;;;;;;;13.51;59.71;100047.78;5028481;28;20116;-66
2021/05/21 00:44:56;;;;;;;2.80;1.40;;;;;;;13.52;59.58;100044.16;5014824;28;20432;-66
2021/05/21 00:47:23;;;;;;;1.73;1.42;;;;;;;13.47;59.38;100032.97;5015669;28;20646;-67
2021/05/21 00:49:50;;;;;;;1.83;1.38;;;;;;;13.49;59.68;100049.69;5011595;28;20113;-67
2021/05/21 00:52:17;;;;;;;1.75;1.38;;;;;;;13.45;59.47;100040.19;5012363;28;20064;-66
2021/05/21 00:54:45;;;;;;;4.47;1.50;;;;;;;13.47;59.83;100038.28;5029036;28;20077;-66
2021/05/21 00:57:12;;;;;;;2.25;1.77;;;;;;;13.51;59.72;100030.97;5031291;28;20057;-66
2021/05/21 00:59:39;;;;;;;2.05;1.70;;;;;;;13.42;59.45;100024.41;5015066;28;20164;-67
2021/05/21 01:02:07;;;;;;;1.67;1.58;;;;;;;13.43;59.34;100025.25;5032363;28;20121;-67
2021/05/21 01:04:35;;;;;;;3.05;1.50;;;;;;;13.40;59.56;100023.66;5027341;28;20045;-66
2021/05/21 01:07:05;;;;;;;3.42;1.60;;;;;;;13.39;60.05;100019.28;5029108;28;20050;-66
2021/05/21 01:09:33;;;;;;;2.15;1.50;;;;;;;13.39;60.10;100015.75;5025480;28;20052;-67
2021/05/21 01:12:00;;;;;;;2.42;1.42;;;;;;;13.38;60.38;100014.09;5026323;28;20056;-67
2021/05/21 01:14:28;;;;;;;3.00;1.58;;;;;;;13.37;60.16;100009.72;5032009;28;20060;-67
2021/05/21 01:16:55;;;;;;;1.50;1.40;;;;;;;13.37;60.35;100005.25;5032293;28;20056;-65
2021/05/21 01:19:22;;;;;;;2.40;1.50;;;;;;;13.41;60.45;100005.88;5030850;28;20045;-67
2021/05/21 01:21:48;;;;;;;1.83;1.73;;;;;;;13.38;60.30;100003.44;5026652;28;20074;-66
2021/05/21 01:24:16;;;;;;;2.05;1.80;;;;;;;13.36;60.34;99994.72;5034796;28;20050;-67
2021/05/21 01:26:45;;;;;;;2.28;1.42;;;;;;;13.36;61.04;99995.56;4991911;28;20049;-65
2021/05/21 01:29:11;;;;;;;4.43;1.60;;;;;;;13.36;61.14;99992.91;4989685;28;20054;-68
2021/05/21 01:31:42;;;;;;;2.28;1.88;;;;;;;13.35;60.29;99988.53;4990573;28;20138;-67
2021/05/21 01:34:09;;;;;;;3.03;1.88;;;;;;;13.36;61.08;99984.06;5016305;28;20206;-65
2021/05/21 01:36:36;;;;;;;4.25;1.60;;;;;;;13.30;60.70;99967.56;5014012;28;20088;-66
2021/05/21 01:39:10;;;;;;;2.53;1.58;;;;;;;13.30;60.97;99977.34;4990340;28;20041;-67
2021/05/21 01:41:38;;;;;;;2.45;1.67;;;;;;;13.32;60.48;99972.78;4989882;28;20050;-67
2021/05/21 01:44:07;;;;;;;3.38;1.60;;;;;;;13.29;60.93;99960.53;4997197;28;20053;-66
2021/05/21 01:46:35;;;;;;;3.03;1.55;;;;;;;13.28;60.84;99953.50;5006933;28;20109;-67
2021/05/21 01:49:01;;;;;;;2.30;1.63;;;;;;;13.26;61.03;99958.06;5007739;28;20049;-66
2021/05/21 01:51:28;;;;;;;2.10;1.60;;;;;;;13.21;61.31;99951.34;5002831;28;20088;-68
2021/05/21 01:54:10;;;;;;;1.88;1.50;;;;;;;13.22;61.20;99948.56;4996474;28;20050;-67
2021/05/21 01:56:38;;;;;;;1.88;1.60;;;;;;;13.20;61.50;99945.19;4999389;28;20049;-66
2021/05/21 01:59:04;;;;;;;2.10;1.55;;;;;;;13.17;61.51;99945.38;5006762;28;20724;-66
2021/05/21 02:01:31;;;;;;;4.40;1.77;;;;;;;13.12;61.59;99933.28;4981081;28;20048;-67
2021/05/21 02:03:58;;;;;;;2.42;1.70;;;;;;;13.13;61.90;99945.63;4988978;28;20748;-66
2021/05/21 02:06:26;;;;;;;2.38;1.85;;;;;;;13.15;61.60;99941.09;5009544;28;20085;-66
2021/05/21 02:08:53;;;;;;;2.88;1.50;;;;;;;13.11;61.99;99936.91;4995753;28;20057;-66
2021/05/21 02:11:19;;;;;;;2.20;1.73;;;;;;;13.03;61.94;99924.13;5011216;28;20125;-65
2021/05/21 02:13:46;;;;;;;3.30;1.83;;;;;;;13.09;62.02;99922.84;5003805;28;20046;-64
2021/05/21 02:16:13;;;;;;;1.88;1.67;;;;;;;13.10;62.42;99921.91;4993536;28;20046;-65
2021/05/21 02:18:40;;;;;;;2.08;1.70;;;;;;;13.11;62.21;99912.97;5007792;28;20046;-64
2021/05/21 02:21:07;;;;;;;3.35;1.30;;;;;;;13.09;62.08;99907.75;5007298;28;20101;-66
2021/05/21 02:23:34;;;;;;;2.50;1.70;;;;;;;13.02;62.24;99900.28;5012360;28;20105;-66
2021/05/21 02:26:01;;;;;;;2.45;1.60;;;;;;;12.93;63.02;99883.97;4997697;28;20048;-68
2021/05/21 02:28:28;;;;;;;3.65;1.80;;;;;;;13.00;62.76;99889.75;5008719;28;20414;-68
2021/05/21 02:30:54;;;;;;;3.60;1.73;;;;;;;13.00;62.81;99893.28;5012457;28;20057;-69
2021/05/21 02:33:20;;;;;;;2.88;1.80;;;;;;;12.98;63.09;99878.38;5006905;28;20076;-66
2021/05/21 02:35:47;;;;;;;3.33;1.95;;;;;;;12.99;63.19;99872.09;5007922;28;21044;-66
2021/05/21 02:38:13;;;;;;;2.20;1.85;;;;;;;12.95;62.97;99870.59;5013778;28;20077;-66
2021/05/21 02:40:40;;;;;;;1.98;1.60;;;;;;;12.94;63.00;99864.41;4993251;28;20057;-68
2021/05/21 02:43:06;;;;;;;2.85;1.90;;;;;;;12.94;63.35;99859.09;4988742;28;20100;-67
2021/05/21 02:45:33;;;;;;;3.45;1.60;;;;;;;12.94;62.68;99856.44;5010551;28;20065;-65
2021/05/21 02:47:59;;;;;;;1.95;1.73;;;;;;;12.89;63.02;99852.41;5007013;28;20054;-65
2021/05/21 02:50:26;;;;;;;3.55;1.50;;;;;;;12.86;62.96;99844.63;5006760;28;20049;-65
2021/05/21 02:52:52;;;;;;;4.32;1.65;;;;;;;12.82;63.47;99838.66;4989010;28;20152;-65
2021/05/21 02:55:19;;;;;;;3.38;1.45;;;;;;;12.78;63.11;99833.63;4991310;28;20049;-67
2021/05/21 02:57:46;;;;;;;2.53;1.50;;;;;;;12.79;62.91;99832.69;4995400;28;20144;-65
2021/05/21 03:00:13;;;;;;;2.58;1.90;;;;;;;12.78;62.70;99833.63;5008080;28;20069;-66
2021/05/21 03:02:39;;;;;;;3.08;1.50;;;;;;;12.78;62.73;99829.16;4993756;28;20105;-68
2021/05/21 03:05:07;;;;;;;2.47;1.52;;;;;;;12.79;62.28;99825.56;4992963;28;20046;-67
2021/05/21 03:07:33;;;;;;;2.88;1.48;;;;;;;12.83;62.24;99821.75;4992658;28;20173;-68
2021/05/21 03:10:00;;;;;;;2.97;1.38;;;;;;;12.87;61.06;99812.66;4993135;28;20064;-67
2021/05/21 03:12:26;;;;;;;3.17;1.30;;;;;;;12.85;60.82;99809.22;5005118;28;20050;-66
2021/05/21 03:14:54;;;;;;;2.03;1.20;;;;;;;12.85;61.02;99801.25;5006546;28;20043;-65
2021/05/21 03:17:20;;;;;;;1.70;1.17;;;;;;;12.88;60.63;99816.16;5007495;28;20357;-65
2021/05/21 03:19:47;;;;;;;3.30;1.33;;;;;;;12.90;60.12;99809.78;5010298;28;20042;-65
2021/05/21 03:22:13;;;;;;;2.50;1.20;;;;;;;12.86;60.48;99802.13;5015143;28;20050;-65
2021/05/21 03:24:40;;;;;;;2.08;1.15;;;;;;;12.91;60.01;99811.47;5014460;28;20130;-65
2021/05/21 03:27:07;;;;;;;2.05;1.27;;;;;;;12.94;59.83;99800.66;4995069;28;20118;-65
2021/05/21 03:29:34;;;;;;;1.30;1.20;;;;;;;12.95;60.10;99802.34;5015364;28;20054;-64
2021/05/21 03:32:01;;;;;;;2.08;1.10;;;;;;;13.00;59.36;99804.72;4999290;28;20729;-66
2021/05/21 03:34:27;;;;;;;4.80;1.20;;;;;;;13.00;59.44;99802.06;5008529;28;20449;-65
2021/05/21 03:36:54;;;;;;;2.25;1.13;;;;;;;13.03;59.41;99793.88;5011770;28;20096;-66
2021/05/21 03:39:20;;;;;;;1.65;1.40;;;;;;;13.01;59.23;99795.78;4994481;28;20073;-67
2021/05/21 03:41:47;;;;;;;3.22;1.08;;;;;;;13.03;59.04;99798.34;5006877;28;20187;-66
2021/05/21 03:44:13;;;;;;;2.35;1.10;;;;;;;13.05;59.32;99796.44;5009872;28;20042;-65
2021/05/21 03:46:40;;;;;;;2.40;1.40;;;;;;;13.02;59.56;99786.88;4991698;28;20113;-65
2021/05/21 03:49:06;;;;;;;1.13;0.88;;;;;;;13.02;59.36;99792.19;5007012;28;20056;-65
2021/05/21 03:51:33;;;;;;;1.92;1.10;;;;;;;13.08;59.45;99797.06;5008054;28;20192;-66
2021/05/21 03:54:00;;;;;;;1.80;1.30;;;;;;;13.10;59.24;99800.47;5003786;28;20106;-67
2021/05/21 03:56:26;;;;;;;5.47;1.40;;;;;;;13.14;59.11;99791.34;5006343;28;20506;-66
2021/05/21 03:58:56;;;;;;;3.65;1.27;;;;;;;13.17;59.13;99795.66;5012882;28;20148;-67
2021/05/21 04:01:24;;;;;;;1.75;1.48;;;;;;;13.17;59.24;99791.19;4992766;28;20064;-66
2021/05/21 04:03:51;;;;;;;1.40;1.20;;;;;;;13.19;59.19;99785.75;5000477;28;20129;-65
2021/05/21 04:06:17;;;;;;;2.40;1.20;;;;;;;13.19;59.72;99783.09;4990635;28;20061;-64
2021/05/21 04:08:44;;;;;;;2.38;1.10;;;;;;;13.23;59.36;99784.59;4997705;28;20057;-67
2021/05/21 04:11:11;;;;;;;2.15;1.10;;;;;;;13.27;59.48;99783.44;4987209;28;20188;-65
2021/05/21 04:13:38;;;;;;;3.00;1.35;;;;;;;13.30;59.46;99785.88;4991859;28;20046;-66
2021/05/21 04:16:05;;;;;;;2.80;1.40;;;;;;;13.30;59.75;99783.22;5010091;28;20050;-66
2021/05/21 04:18:32;;;;;;;3.22;1.50;;;;;;;13.31;59.35;99779.63;4991467;28;20064;-68
2021/05/21 04:20:58;;;;;;;2.50;1.30;;;;;;;13.39;59.24;99776.41;4994390;28;21901;-67
2021/05/21 04:23:25;;;;;;;4.45;1.48;;;;;;;13.43;59.07;99768.13;4988338;28;20051;-68
2021/05/21 04:25:52;;;;;;;1.90;1.20;;;;;;;13.46;59.32;99767.06;5012517;28;20137;-66
2021/05/21 04:28:18;;;;;;;2.42;1.50;;;;;;;13.48;59.01;99762.50;4993865;28;20076;-66
2021/05/21 04:30:44;;;;;;;5.70;1.52;;;;;;;13.50;59.30;99772.09;5011953;28;20061;-67
2021/05/21 04:33:11;;;;;;;1.77;1.40;;;;;;;13.57;58.84;99772.50;5011470;28;20156;-66
2021/05/21 04:35:37;;;;;;;3.33;1.30;;;;;;;13.58;59.11;99761.75;4992854;28;20168;-68
2021/05/21 04:38:04;;;;;;;3.35;1.38;;;;;;;13.62;59.01;99762.41;4990842;28;20073;-67
2021/05/21 04:40:31;;;;;;;1.73;1.15;;;;;;;13.60;58.81;99751.84;5007550;28;20541;-66
2021/05/21 04:42:57;;;;;;;2.97;1.60;;;;;;;13.63;59.23;99756.13;4996546;28;20143;-67
2021/05/21 04:45:24;;;;;;;5.32;1.70;;;;;;;13.60;59.12;99751.84;5010187;28;20057;-67
2021/05/21 04:47:50;;;;;;;4.13;1.50;;;;;;;13.63;59.18;99751.66;5010523;28;20085;-67
2021/05/21 04:50:17;;;;;;;2.05;1.38;;;;;;;13.67;59.38;99761.13;5010837;28;20057;-67
2021/05/21 04:52:44;;;;;;;2.15;1.27;;;;;;;13.75;59.24;99760.59;5009354;28;20045;-66
2021/05/21 04:55:11;;;;;;;2.53;1.45;;;;;;;13.80;59.09;99758.47;5012018;28;20188;-66
2021/05/21 04:57:37;;;;;;;5.53;1.80;;;;;;;13.81;59.01;99752.19;5012955;28;20089;-68
2021/05/21 05:00:05;;;;;;;2.80;1.30;;;;;;;13.81;58.85;99754.00;5007908;28;20489;-68
2021/05/21 05:02:32;;;;;;;3.45;1.60;;;;;;;13.81;59.00;99749.53;4993246;28;20156;-67
2021/05/21 05:04:58;;;;;;;3.25;1.60;;;;;;;13.80;58.72;99747.81;5012678;28;20541;-67
2021/05/21 05:07:25;;;;;;;1.95;1.50;;;;;;;13.81;58.64;99743.34;5016636;28;20508;-66
2021/05/21 05:09:51;;;;;;;2.75;1.40;;;;;;;13.82;58.63;99732.59;5011726;28;20140;-66
2021/05/21 05:12:18;;;;;;;2.15;1.17;;;;;;;13.88;58.84;99736.59;5010562;28;20060;-66
2021/05/21 05:14:44;;;;;;;7.82;1.63;;;;;;;13.92;58.02;99740.75;4991569;28;20042;-66
2021/05/21 05:17:11;;;;;;;2.33;1.30;;;;;;;14.01;58.72;99745.41;5002537;28;20041;-67
2021/05/21 05:19:37;;;;;;;2.88;1.40;;;;;;;14.14;58.15;99742.75;5010974;28;20053;-68
2021/05/21 05:22:04;;;;;;;2.95;1.23;;;;;;;14.18;57.97;99717.59;4998549;28;20054;-68
2021/05/21 05:24:34;;;;;;;2.72;1.30;;;;;;;14.21;57.61;99730.69;4994395;28;20351;-68
2021/05/21 05:27:01;;;;;;;3.00;1.30;;;;;;;14.20;57.72;99727.16;5010855;28;20076;-67
2021/05/21 05:29:30;;;;;;;2.47;1.30;;;;;;;14.24;57.69;99720.66;4989794;28;20073;-66
2021/05/21 05:31:56;;;;;;;2.47;1.40;;;;;;;14.34;57.66;99720.84;5016139;28;20085;-67
2021/05/21 05:34:23;;;;;;;4.03;1.63;;;;;;;14.41;57.80;99710.63;5011230;28;20063;-68
2021/05/21 05:36:49;;;;;;;1.83;1.17;;;;;;;14.54;57.29;99706.09;4989286;28;20077;-67
2021/05/21 05:39:16;;;;;;;3.55;1.70;;;;;;;14.73;56.47;99701.09;5005944;28;20457;-66
2021/05/21 05:41:42;;;;;;;2.03;1.35;;;;;;;14.89;56.49;99690.13;5000955;28;20050;-65
2021/05/21 05:44:09;;;;;;;3.08;1.50;;;;;;;15.12;55.61;99691.03;5009531;28;20489;-67
2021/05/21 05:46:35;;;;;;;3.22;1.40;;;;;;;15.33;54.22;99684.03;4992412;28;20068;-66
2021/05/21 05:49:02;;;;;;;2.00;1.40;;;;;;;15.52;54.42;99678.13;4988644;28;20228;-66
2021/05/21 05:51:29;;;;;;;5.32;1.42;;;;;;;15.73;53.50;99673.78;5012341;28;20074;-68
2021/05/21 05:53:56;;;;;;;3.00;1.20;;;;;;;15.82;53.35;99666.84;5008358;28;20061;-65
2021/05/21 05:56:22;;;;;;;3.38;1.23;;;;;;;16.00;52.49;99668.06;5007773;28;20038;-68
2021/05/21 05:58:49;;;;;;;2.55;1.30;;;;;;;16.18;51.57;99661.22;5009754;28;20044;-68
2021/05/21 06:01:15;;;;;;;2.78;1.20;;;;;;;16.22;51.21;99661.78;4993751;28;20054;-69
2021/05/21 06:03:42;;;;;;;4.28;1.27;;;;;;;16.33;52.51;99665.31;5012755;28;20049;-67
2021/05/21 06:06:08;;;;;;;3.17;1.25;;;;;;;16.37;51.06;99655.22;5006103;28;20081;-67
2021/05/21 06:08:53;;;;;;;3.13;1.27;;;;;;;16.38;51.41;99654.22;4994996;28;20132;-67
2021/05/21 06:11:19;;;;;;;3.92;1.48;;;;;;;16.49;50.70;99652.38;4999541;28;20097;-66
2021/05/21 06:13:46;;;;;;;4.55;1.17;;;;;;;16.61;50.11;99653.16;4996415;28;20076;-66
2021/05/21 06:16:12;;;;;;;4.05;1.23;;;;;;;16.89;49.50;99643.69;5014853;28;20460;-66
2021/05/21 06:18:40;;;;;;;3.08;1.20;;;;;;;17.19;48.71;99657.13;5017840;28;20048;-66
2021/05/21 06:21:09;;;;;;;4.18;1.27;;;;;;;17.40;47.88;99650.91;4994044;28;20061;-67
2021/05/21 06:23:37;;;;;;;4.03;1.10;;;;;;;17.61;47.48;99642.84;5013870;28;20078;-67
2021/05/21 06:26:14;;;;;;;3.90;1.00;;;;;;;17.59;47.32;99634.94;4992392;28;20118;-68
2021/05/21 06:28:41;;;;;;;6.38;1.08;;;;;;;17.61;46.77;99642.84;5012062;28;20118;-66
2021/05/21 06:31:09;;;;;;;2.30;1.02;;;;;;;17.75;46.36;99635.31;4997644;28;20050;-65
2021/05/21 06:33:36;;;;;;;3.53;0.95;;;;;;;17.60;47.07;99622.41;4995358;28;20121;-67
2021/05/21 06:36:03;;;;;;;6.07;1.20;;;;;;;17.56;47.14;99619.13;5011644;28;20077;-67
2021/05/21 06:38:30;;;;;;;5.28;1.60;;;;;;;17.56;46.91;99623.66;5003777;28;20150;-67
2021/05/21 06:40:56;;;;;;;6.05;1.45;;;;;;;17.50;47.41;99625.88;4989180;28;20062;-65
2021/05/21 06:43:23;;;;;;;2.33;0.90;;;;;;;17.65;46.99;99617.50;5015658;28;20117;-68
2021/05/21 06:45:49;;;;;;;3.55;1.20;;;;;;;17.46;46.85;99618.25;4992048;28;20105;-66
2021/05/21 06:48:16;;;;;;;3.05;1.23;;;;;;;17.30;47.42;99628.63;5001155;28;20064;-66
2021/05/21 06:50:44;;;;;;;3.38;1.52;;;;;;;17.22;48.10;99620.38;5012970;28;20061;-65
2021/05/21 06:53:10;;;;;;;1.17;1.08;;;;;;;17.08;48.28;99617.09;5005270;28;20222;-67
2021/05/21 06:55:39;;;;;;;3.47;1.08;;;;;;;16.89;48.14;99624.97;5007320;28;20109;-67
2021/05/21 06:58:06;;;;;;;2.05;0.90;;;;;;;16.76;48.81;99619.84;5011751;28;20450;-69
2021/05/21 07:00:38;;;;;;;3.00;1.20;;;;;;;16.69;49.08;99621.31;5010078;28;20069;-67
2021/05/21 07:03:05;;;;;;;2.40;1.23;;;;;;;16.72;48.94;99610.38;4982159;28;20627;-68
2021/05/21 07:05:31;;;;;;;2.65;1.00;;;;;;;16.72;48.30;99623.72;4997584;28;20053;-67
2021/05/21 07:07:58;;;;;;;4.05;1.20;;;;;;;16.72;48.24;99618.38;5012123;28;20153;-69
2021/05/21 07:10:25;;;;;;;4.20;1.17;;;;;;;16.65;48.64;99632.41;4985361;28;20042;-67
2021/05/21 07:12:52;;;;;;;3.70;1.15;;;;;;;16.55;49.34;99620.75;5001645;28;20085;-67
2021/05/21 07:15:18;;;;;;;3.95;1.20;;;;;;;16.59;49.45;99620.38;5000687;28;20130;-66
2021/05/21 07:17:46;;;;;;;1.63;1.00;;;;;;;16.64;48.84;99617.34;5004656;28;20057;-68
2021/05/21 07:20:14;;;;;;;7.95;1.23;;;;;;;16.66;48.77;99604.72;4986627;28;20046;-68
2021/05/21 07:22:41;;;;;;;4.32;1.00;;;;;;;16.65;48.94;99603.00;4987239;28;20049;-66
2021/05/21 07:25:08;;;;;;;3.38;1.00;;;;;;;16.67;48.38;99617.09;5006641;28;20043;-68
2021/05/21 07:27:36;;;;;;;2.65;1.23;;;;;;;16.69;48.42;99623.13;4989505;28;20064;-65
2021/05/21 07:30:03;;;;;;;1.98;1.10;;;;;;;16.72;48.07;99609.50;5008527;28;20185;-65
2021/05/21 07:32:30;;;;;;;3.10;1.17;;;;;;;16.67;48.02;99598.38;5012071;28;20109;-66
2021/05/21 07:34:57;;;;;;;5.07;1.05;;;;;;;16.73;47.61;99592.50;5001396;28;20145;-66
2021/05/21 07:37:24;;;;;;;1.33;0.77;;;;;;;16.77;47.31;99596.63;5009489;28;20053;-65
2021/05/21 07:39:51;;;;;;;2.05;1.10;;;;;;;16.82;47.43;99591.72;5004360;28;20048;-66
2021/05/21 07:42:17;;;;;;;4.25;1.10;;;;;;;16.82;47.34;99589.91;4989222;28;20054;-66
2021/05/21 07:44:44;;;;;;;5.38;1.08;;;;;;;16.89;47.07;99594.72;5009042;28;20042;-67
2021/05/21 07:47:10;;;;;;;2.45;1.00;;;;;;;17.04;46.69;99591.56;5008944;28;20077;-66
2021/05/21 07:49:41;;;;;;;3.03;1.10;;;;;;;17.19;46.33;99595.59;5008738;28;20056;-66
2021/05/21 07:52:08;;;;;;;2.40;0.90;;;;;;;17.33;47.51;99585.50;5004260;28;20050;-66
2021/05/21 07:54:35;;;;;;;3.78;0.70;;;;;;;17.52;45.64;99573.06;5011999;28;20080;-68
2021/05/21 07:57:02;;;;;;;6.20;1.55;;;;;;;17.59;45.40;99576.03;5005252;28;20070;-68
2021/05/21 07:59:29;;;;;;;3.00;0.90;;;;;;;17.48;45.85;99566.25;5013635;28;20046;-66
2021/05/21 08:01:59;;;;;;;3.45;0.82;;;;;;;17.37;46.03;99566.38;5004336;28;20092;-66
2021/05/21 08:04:25;;;;;;;5.30;1.20;;;;;;;17.29;46.39;99573.41;4992896;28;20401;-68
2021/05/21 08:06:52;;;;;;;1.85;0.80;;;;;;;17.14;46.63;99575.59;5012709;28;21942;-66
2021/05/21 08:09:20;;;;;;;1.98;1.02;;;;;;;17.16;47.14;99574.44;4999728;28;20117;-68
2021/05/21 08:11:48;;;;;;;4.40;0.93;;;;;;;17.19;47.53;99574.19;5017808;28;20054;-65
2021/05/21 08:14:19;;;;;;;3.35;0.90;;;;;;;17.31;46.92;99572.28;5009627;28;21238;-66
2021/05/21 08:16:46;;;;;;;2.47;0.82;;;;;;;17.33;46.73;99578.31;4993059;28;20050;-67
2021/05/21 08:19:13;;;;;;;5.30;0.88;;;;;;;17.34;46.88;99589.88;4999030;28;20145;-66
2021/05/21 08:21:40;;;;;;;3.75;0.77;;;;;;;17.42;46.63;99595.41;5010380;28;20051;-67
2021/05/21 08:24:07;;;;;;;7.38;1.00;;;;;;;17.42;46.20;99593.59;4994544;28;20049;-66
2021/05/21 08:26:34;;;;;;;1.75;0.80;;;;;;;17.37;46.67;99594.97;5017425;28;20046;-67
2021/05/21 08:29:01;;;;;;;3.83;0.98;;;;;;;17.51;46.52;99594.59;5013093;28;20061;-67
2021/05/21 08:31:27;;;;;;;2.75;1.00;;;;;;;17.53;47.02;99585.44;4995067;28;20133;-66
2021/05/21 08:33:57;;;;;;;5.55;1.08;;;;;;;17.47;47.05;99582.50;4988015;28;20054;-68
2021/05/21 08:36:26;;;;;;;2.85;0.85;;;;;;;17.42;47.40;99571.34;4992822;28;20049;-67
2021/05/21 08:38:53;;;;;;;1.17;0.90;;;;;;;17.52;47.18;99574.88;5002929;28;20050;-65
2021/05/21 08:41:24;;;;;;;1.08;0.80;;;;;;;17.64;45.93;99579.16;5016208;28;20085;-66
2021/05/21 08:43:54;;;;;;;2.85;0.90;;;;;;;17.59;46.11;99572.50;5007489;28;20046;-65
2021/05/21 08:46:23;;;;;;;1.95;1.02;;;;;;;17.72;45.84;99589.22;5000299;28;20046;-69
2021/05/21 08:48:50;;;;;;;1.48;0.80;;;;;;;17.82;45.66;99584.72;5001434;28;20189;-65
2021/05/21 08:51:17;;;;;;;3.97;0.75;;;;;;;17.98;45.28;99603.78;5015719;28;20049;-64
2021/05/21 08:53:49;;;;;;;2.58;0.95;;;;;;;18.02;44.32;99607.03;5016583;28;20056;-65
2021/05/21 08:56:16;;;;;;;3.33;0.98;;;;;;;18.10;44.14;99607.19;5018030;28;20102;-67
2021/05/21 08:58:44;;;;;;;5.50;0.90;;;;;;;18.17;43.31;99616.38;4996735;28;20173;-65
2021/05/21 09:01:11;;;;;;;3.78;0.90;;;;;;;18.22;42.58;99611.44;4997885;28;20046;-65
2021/05/21 09:03:45;;;;;;;3.75;0.93;;;;;;;18.27;42.66;99614.53;4993547;28;20046;-68
2021/05/21 09:06:21;;;;;;;4.90;0.85;;;;;;;17.94;42.80;99612.25;5010455;28;20050;-63
2021/05/21 09:08:56;;;;;;;4.30;1.02;;;;;;;17.98;43.12;99610.97;5015476;28;20085;-66
2021/05/21 09:11:43;;;;;;;8.07;1.05;;;;;;;18.07;42.72;99607.47;5002098;28;20132;-65
2021/05/21 09:14:15;;;;;;;5.63;1.13;;;;;;;18.02;42.44;99609.72;5019734;28;20056;-64
2021/05/21 09:16:44;;;;;;;6.40;1.23;;;;;;;17.82;42.70;99598.94;5013324;28;20081;-64
2021/05/21 09:19:19;;;;;;;2.40;0.90;;;;;;;17.85;43.22;99604.03;5013313;28;20046;-64
2021/05/21 09:22:08;;;;;;;5.20;0.90;;;;;;;18.12;42.65;99613.25;4997249;28;20055;-64
2021/05/21 09:24:42;;;;;;;5.65;1.02;;;;;;;18.31;41.43;99613.28;5014892;28;20110;-65
2021/05/21 09:27:10;;;;;;;3.90;0.80;;;;;;;18.53;40.98;99596.91;4993152;28;20073;-65
2021/05/21 09:29:46;;;;;;;5.20;1.23;;;;;;;18.69;41.19;99607.09;5011060;28;20104;-64
2021/05/21 09:32:16;;;;;;;2.67;0.80;;;;;;;18.52;40.54;99610.47;4995206;28;20050;-63
2021/05/21 09:34:49;;;;;;;8.48;1.10;;;;;;;18.38;40.79;99624.28;4996524;28;20050;-64
2021/05/21 09:37:23;;;;;;;3.05;1.00;;;;;;;18.18;40.89;99601.97;5007644;28;20085;-64
2021/05/21 09:40:19;;;;;;;3.10;1.00;;;;;;;18.14;40.75;99590.69;5013355;28;20058;-64
2021/05/21 09:42:55;;;;;;;3.25;1.00;;;;;;;17.93;41.72;99598.00;4994756;28;20050;-64
2021/05/21 09:45:24;;;;;;;3.25;1.20;;;;;;;18.06;41.31;99608.47;4998692;28;20054;-66
2021/05/21 09:47:53;;;;;;;3.40;1.13;;;;;;;18.12;40.36;99607.88;5014024;28;20046;-64
2021/05/21 09:50:30;;;;;;;5.97;1.33;;;;;;;18.01;40.95;99605.34;4997530;28;20137;-65
2021/05/21 09:53:20;;;;;;;3.15;0.90;;;;;;;18.09;41.15;99603.69;5015777;28;20113;-65
2021/05/21 09:55:52;;;;;;;7.47;2.15;;;;;;;18.39;41.29;99618.78;4991299;28;20058;-64
2021/05/21 09:58:42;;;;;;;6.93;1.30;;;;;;;18.55;41.10;99605.66;4996362;28;20050;-64
2021/05/21 10:01:15;;;;;;;4.80;1.45;;;;;;;18.80;40.86;99612.31;5008276;28;20113;-64
2021/05/21 10:03:46;;;;;;;7.55;1.30;;;;;;;18.79;39.95;99607.94;5017951;28;20134;-65
2021/05/21 10:06:14;;;;;;;7.90;1.42;;;;;;;18.81;38.89;99603.28;5003481;28;20042;-65
2021/05/21 10:08:44;;;;;;;6.88;1.58;;;;;;;18.97;39.23;99607.19;4995664;28;20064;-64
2021/05/21 10:11:10;;;;;;;7.15;1.50;;;;;;;18.78;38.85;99606.22;4992403;28;20050;-64
2021/05/21 10:13:39;;;;;;;4.95;1.40;;;;;;;18.57;39.17;99629.66;5008634;28;20117;-66
2021/05/21 10:16:05;;;;;;;7.53;2.00;;;;;;;18.55;39.12;99602.16;4995378;28;20076;-65
2021/05/21 10:18:35;;;;;;;7.43;1.58;;;;;;;18.61;38.49;99622.19;5018840;28;20067;-64
2021/05/21 10:21:02;;;;;;;9.73;1.55;;;;;;;18.60;38.91;99615.97;4991017;28;20053;-68
2021/05/21 10:23:36;;;;;;;4.55;1.58;;;;;;;18.84;39.15;99611.03;5005214;28;20039;-64
2021/05/21 10:26:13;;;;;;;8.23;1.70;;;;;;;18.92;38.51;99612.97;4992555;28;20082;-63
2021/05/21 10:28:45;;;;;;;9.38;1.67;;;;;;;19.00;39.26;99607.75;4992183;28;20073;-65
2021/05/21 10:31:13;;;;;;;6.53;1.50;;;;;;;18.95;38.92;99619.91;4991287;28;20105;-64
2021/05/21 10:33:43;;;;;;;5.18;1.48;;;;;;;18.91;38.85;99614.81;4991222;28;20046;-64
2021/05/21 10:36:15;;;;;;;8.20;1.97;;;;;;;19.01;38.71;99617.50;4995599;28;20077;-64
2021/05/21 10:39:01;;;;;;;6.00;1.17;;;;;;;19.04;38.45;99606.50;4997999;28;20476;-63
2021/05/21 10:41:27;;;;;;;5.47;1.60;;;;;;;19.30;38.52;99619.25;5007240;28;20050;-64
2021/05/21 10:43:55;;;;;;;10.15;1.67;;;;;;;19.24;38.27;99605.41;5009609;28;20074;-64
2021/05/21 10:46:22;;;;;;;6.35;1.67;;;;;;;19.23;38.48;99606.41;4989001;28;20050;-64
2021/05/21 10:48:52;;;;;;;8.05;1.70;;;;;;;19.45;38.58;99605.22;4994265;28;20042;-67
2021/05/21 10:51:50;;;;;;;5.22;1.58;;;;;;;19.58;37.81;99608.44;5006479;28;20128;-67
2021/05/21 10:54:28;;;;;;;7.13;1.90;;;;;;;19.40;37.70;99604.78;4997753;28;20073;-66
2021/05/21 10:57:08;;;;;;;12.07;2.22;;;;;;;19.37;38.24;99591.66;5006847;28;20129;-66
2021/05/21 10:59:51;;;;;;;9.63;2.08;;;;;;;19.47;38.20;99599.69;4994082;28;20050;-64
2021/05/21 11:02:21;;;;;;;9.77;2.10;;;;;;;19.66;38.14;99604.16;4991021;28;20101;-65
2021/05/21 11:04:50;;;;;;;7.82;1.67;;;;;;;19.72;37.85;99598.19;5014003;28;20037;-67
2021/05/21 11:07:31;;;;;;;9.98;1.85;;;;;;;19.46;36.70;99585.41;4995201;28;20060;-64
2021/05/21 11:09:58;;;;;;;8.43;1.70;;;;;;;19.53;37.33;99583.84;5008875;28;20060;-65
2021/05/21 11:13:00;;;;;;;7.60;1.77;;;;;;;19.57;37.06;99574.50;5004005;28;20042;-66
2021/05/21 11:15:32;;;;;;;6.85;1.70;;;;;;;19.58;38.21;99581.56;4996113;28;20054;-63
2021/05/21 11:18:15;;;;;;;6.20;1.67;;;;;;;19.59;37.23;99594.00;5015956;28;20066;-66
2021/05/21 11:21:06;;;;;;;6.85;1.63;;;;;;;19.78;37.40;99587.69;5012334;28;20060;-64
2021/05/21 11:23:46;;;;;;;7.30;1.40;;;;;;;19.69;37.52;99572.47;5009567;28;20061;-66
2021/05/21 11:26:13;;;;;;;9.10;1.52;;;;;;;19.71;37.63;99564.25;5004645;28;20057;-67
2021/05/21 11:28:48;;;;;;;7.05;1.40;;;;;;;19.47;38.18;99564.78;5006460;28;20081;-67
2021/05/21 11:31:22;;;;;;;8.70;1.38;;;;;;;19.34;38.50;99570.50;5010550;28;20065;-65
2021/05/21 11:33:51;;;;;;;6.78;1.27;;;;;;;19.25;38.85;99566.84;4990293;28;20092;-64
2021/05/21 11:36:20;;;;;;;13.35;2.05;;;;;;;19.38;39.51;99565.66;5000509;28;20077;-62
2021/05/21 11:38:47;;;;;;;4.93;1.33;;;;;;;19.34;39.09;99561.59;5007936;28;20058;-64